sensor_id;sensor_type;location;lat;lon;timestamp;P1;durP1;ratioP1;P2;durP2;ratioP2
63259;SDS011;49390;51.380;0.098;2023-08-21T00:02:11;7.35;;;3.28;;
63259;SDS011;49390;51.380;0.098;2023-08-21T00:04:39;6.47;;;3.50;;
63259;SDS011;49390;51.380;0.098;2023-08-21T00:07:07;7.18;;;3.10;;
63259;SDS011;49390;51.380;0.098;2023-08-21T00:09:37;8.18;;;3.38;;
63259;SDS011;49390;51.380;0.098;2023-08-21T00:12:05;7.38;;;2.97;;
63259;SDS011;49390;51.380;0.098;2023-08-21T00:14:33;9.18;;;3.53;;
63259;SDS011;49390;51.380;0.098;2023-08-21T00:17:02;10.05;;;3.30;;
63259;SDS011;49390;51.380;0.098;2023-08-21T00:19:30;5.95;;;3.20;;
63259;SDS011;49390;51.380;0.098;2023-08-21T00:21:59;9.23;;;3.58;;
63259;SDS011;49390;51.380;0.098;2023-08-21T00:24:27;7.40;;;3.47;;
63259;SDS011;49390;51.380;0.098;2023-08-21T00:26:55;6.07;;;3.65;;
63259;SDS011;49390;51.380;0.098;2023-08-21T00:29:23;7.22;;;3.05;;
63259;SDS011;49390;51.380;0.098;2023-08-21T00:31:52;7.18;;;3.10;;
63259;SDS011;49390;51.380;0.098;2023-08-21T00:34:22;7.50;;;3.40;;
63259;SDS011;49390;51.380;0.098;2023-08-21T00:36:52;8.90;;;3.72;;
63259;SDS011;49390;51.380;0.098;2023-08-21T00:41:49;7.25;;;3.50;;
63259;SDS011;49390;51.380;0.098;2023-08-21T00:44:17;7.78;;;3.13;;
63259;SDS011;49390;51.380;0.098;2023-08-21T00:46:44;7.00;;;3.70;;
63259;SDS011;49390;51.380;0.098;2023-08-21T00:49:15;6.55;;;3.13;;
63259;SDS011;49390;51.380;0.098;2023-08-21T00:51:44;7.22;;;3.20;;
63259;SDS011;49390;51.380;0.098;2023-08-21T00:56:42;10.23;;;3.50;;
63259;SDS011;49390;51.380;0.098;2023-08-21T00:59:12;6.95;;;3.28;;
63259;SDS011;49390;51.380;0.098;2023-08-21T01:01:40;6.68;;;3.50;;
63259;SDS011;49390;51.380;0.098;2023-08-21T01:04:09;9.82;;;3.40;;
63259;SDS011;49390;51.380;0.098;2023-08-21T01:06:37;9.02;;;3.70;;
63259;SDS011;49390;51.380;0.098;2023-08-21T01:11:37;7.50;;;3.28;;
63259;SDS011;49390;51.380;0.098;2023-08-21T01:17:16;7.78;;;3.17;;
63259;SDS011;49390;51.380;0.098;2023-08-21T01:19:47;6.72;;;3.20;;
63259;SDS011;49390;51.380;0.098;2023-08-21T01:22:17;8.82;;;3.20;;
63259;SDS011;49390;51.380;0.098;2023-08-21T01:24:45;7.88;;;3.22;;
63259;SDS011;49390;51.380;0.098;2023-08-21T01:27:13;6.10;;;3.20;;
63259;SDS011;49390;51.380;0.098;2023-08-21T01:29:43;6.90;;;3.42;;
63259;SDS011;49390;51.380;0.098;2023-08-21T01:32:18;9.48;;;3.38;;
63259;SDS011;49390;51.380;0.098;2023-08-21T01:34:59;9.55;;;3.50;;
63259;SDS011;49390;51.380;0.098;2023-08-21T01:37:29;6.97;;;3.22;;
63259;SDS011;49390;51.380;0.098;2023-08-21T01:39:58;8.82;;;2.90;;
63259;SDS011;49390;51.380;0.098;2023-08-21T01:42:26;7.28;;;3.20;;
63259;SDS011;49390;51.380;0.098;2023-08-21T01:44:54;6.85;;;3.15;;
63259;SDS011;49390;51.380;0.098;2023-08-21T01:47:22;7.07;;;3.30;;
63259;SDS011;49390;51.380;0.098;2023-08-21T01:49:50;7.28;;;2.97;;
63259;SDS011;49390;51.380;0.098;2023-08-21T01:52:21;9.20;;;3.25;;
63259;SDS011;49390;51.380;0.098;2023-08-21T01:54:50;8.88;;;3.35;;
63259;SDS011;49390;51.380;0.098;2023-08-21T01:57:18;6.95;;;3.22;;
63259;SDS011;49390;51.380;0.098;2023-08-21T01:59:46;6.97;;;3.40;;
63259;SDS011;49390;51.380;0.098;2023-08-21T02:02:14;9.15;;;3.55;;
63259;SDS011;49390;51.380;0.098;2023-08-21T02:04:43;8.23;;;3.80;;
63259;SDS011;49390;51.380;0.098;2023-08-21T02:07:11;8.75;;;3.90;;
63259;SDS011;49390;51.380;0.098;2023-08-21T02:09:40;8.38;;;4.05;;
63259;SDS011;49390;51.380;0.098;2023-08-21T02:12:10;7.38;;;3.00;;
63259;SDS011;49390;51.380;0.098;2023-08-21T02:14:43;7.72;;;3.08;;
63259;SDS011;49390;51.380;0.098;2023-08-21T02:17:11;10.88;;;3.60;;
63259;SDS011;49390;51.380;0.098;2023-08-21T02:19:39;6.82;;;3.22;;
63259;SDS011;49390;51.380;0.098;2023-08-21T02:22:07;7.47;;;3.45;;
63259;SDS011;49390;51.380;0.098;2023-08-21T02:24:35;6.65;;;3.72;;
63259;SDS011;49390;51.380;0.098;2023-08-21T02:27:03;9.02;;;3.70;;
63259;SDS011;49390;51.380;0.098;2023-08-21T02:29:32;7.25;;;3.90;;
63259;SDS011;49390;51.380;0.098;2023-08-21T02:32:02;7.18;;;3.65;;
63259;SDS011;49390;51.380;0.098;2023-08-21T02:34:31;8.20;;;3.25;;
63259;SDS011;49390;51.380;0.098;2023-08-21T02:36:59;7.40;;;3.50;;
63259;SDS011;49390;51.380;0.098;2023-08-21T02:39:28;6.07;;;3.53;;
63259;SDS011;49390;51.380;0.098;2023-08-21T02:41:56;7.70;;;3.90;;
63259;SDS011;49390;51.380;0.098;2023-08-21T02:44:24;10.10;;;3.95;;
63259;SDS011;49390;51.380;0.098;2023-08-21T02:46:55;7.30;;;3.65;;
63259;SDS011;49390;51.380;0.098;2023-08-21T02:49:23;6.88;;;3.42;;
63259;SDS011;49390;51.380;0.098;2023-08-21T02:51:51;10.40;;;4.10;;
63259;SDS011;49390;51.380;0.098;2023-08-21T02:54:19;8.18;;;3.83;;
63259;SDS011;49390;51.380;0.098;2023-08-21T02:56:48;8.70;;;3.80;;
63259;SDS011;49390;51.380;0.098;2023-08-21T02:59:18;7.47;;;4.13;;
63259;SDS011;49390;51.380;0.098;2023-08-21T03:01:48;7.18;;;3.70;;
63259;SDS011;49390;51.380;0.098;2023-08-21T03:04:16;9.63;;;3.88;;
63259;SDS011;49390;51.380;0.098;2023-08-21T03:06:44;9.48;;;3.67;;
63259;SDS011;49390;51.380;0.098;2023-08-21T03:09:12;8.82;;;3.88;;
63259;SDS011;49390;51.380;0.098;2023-08-21T03:11:40;7.05;;;3.80;;
63259;SDS011;49390;51.380;0.098;2023-08-21T03:14:09;7.53;;;3.70;;
63259;SDS011;49390;51.380;0.098;2023-08-21T03:16:36;8.07;;;3.88;;
63259;SDS011;49390;51.380;0.098;2023-08-21T03:19:05;9.52;;;4.10;;
63259;SDS011;49390;51.380;0.098;2023-08-21T03:21:33;11.45;;;4.50;;
63259;SDS011;49390;51.380;0.098;2023-08-21T03:24:01;11.38;;;4.18;;
63259;SDS011;49390;51.380;0.098;2023-08-21T03:26:32;8.30;;;4.18;;
63259;SDS011;49390;51.380;0.098;2023-08-21T03:29:00;7.80;;;4.13;;
63259;SDS011;49390;51.380;0.098;2023-08-21T03:31:29;8.88;;;3.97;;
63259;SDS011;49390;51.380;0.098;2023-08-21T03:33:57;8.88;;;3.95;;
63259;SDS011;49390;51.380;0.098;2023-08-21T03:36:25;7.25;;;4.22;;
63259;SDS011;49390;51.380;0.098;2023-08-21T03:39:02;12.25;;;5.13;;
63259;SDS011;49390;51.380;0.098;2023-08-21T03:41:37;10.57;;;4.50;;
63259;SDS011;49390;51.380;0.098;2023-08-21T03:44:08;10.55;;;4.68;;
63259;SDS011;49390;51.380;0.098;2023-08-21T03:46:37;8.77;;;4.05;;
63259;SDS011;49390;51.380;0.098;2023-08-21T03:49:06;11.63;;;4.28;;
63259;SDS011;49390;51.380;0.098;2023-08-21T03:51:34;11.93;;;4.78;;
63259;SDS011;49390;51.380;0.098;2023-08-21T03:54:02;11.30;;;4.13;;
63259;SDS011;49390;51.380;0.098;2023-08-21T03:56:32;11.75;;;4.60;;
63259;SDS011;49390;51.380;0.098;2023-08-21T03:59:00;8.75;;;4.55;;
63259;SDS011;49390;51.380;0.098;2023-08-21T04:01:28;14.50;;;4.70;;
63259;SDS011;49390;51.380;0.098;2023-08-21T04:03:56;12.15;;;4.97;;
63259;SDS011;49390;51.380;0.098;2023-08-21T04:06:24;10.77;;;4.50;;
63259;SDS011;49390;51.380;0.098;2023-08-21T04:08:53;9.27;;;4.40;;
63259;SDS011;49390;51.380;0.098;2023-08-21T04:11:20;11.65;;;5.15;;
63259;SDS011;49390;51.380;0.098;2023-08-21T04:13:49;9.98;;;4.40;;
63259;SDS011;49390;51.380;0.098;2023-08-21T04:16:16;10.68;;;4.85;;
63259;SDS011;49390;51.380;0.098;2023-08-21T04:18:45;8.77;;;4.40;;
63259;SDS011;49390;51.380;0.098;2023-08-21T04:21:13;9.48;;;4.50;;
63259;SDS011;49390;51.380;0.098;2023-08-21T04:23:41;8.82;;;4.40;;
63259;SDS011;49390;51.380;0.098;2023-08-21T04:26:12;9.73;;;4.68;;
63259;SDS011;49390;51.380;0.098;2023-08-21T04:28:40;9.55;;;4.78;;
63259;SDS011;49390;51.380;0.098;2023-08-21T04:31:09;9.70;;;4.90;;
63259;SDS011;49390;51.380;0.098;2023-08-21T04:33:38;12.23;;;4.82;;
63259;SDS011;49390;51.380;0.098;2023-08-21T04:36:06;10.10;;;5.40;;
63259;SDS011;49390;51.380;0.098;2023-08-21T04:38:34;9.57;;;4.65;;
63259;SDS011;49390;51.380;0.098;2023-08-21T04:41:08;10.00;;;5.05;;
63259;SDS011;49390;51.380;0.098;2023-08-21T04:43:41;9.40;;;4.43;;
63259;SDS011;49390;51.380;0.098;2023-08-21T04:46:10;13.73;;;5.07;;
63259;SDS011;49390;51.380;0.098;2023-08-21T04:48:41;10.95;;;4.65;;
63259;SDS011;49390;51.380;0.098;2023-08-21T04:51:08;11.00;;;4.60;;
63259;SDS011;49390;51.380;0.098;2023-08-21T04:53:37;14.82;;;4.90;;
63259;SDS011;49390;51.380;0.098;2023-08-21T04:56:10;9.07;;;5.07;;
63259;SDS011;49390;51.380;0.098;2023-08-21T04:58:38;9.70;;;4.68;;
63259;SDS011;49390;51.380;0.098;2023-08-21T05:01:08;11.70;;;4.75;;
63259;SDS011;49390;51.380;0.098;2023-08-21T05:03:41;9.40;;;4.45;;
63259;SDS011;49390;51.380;0.098;2023-08-21T05:06:09;10.68;;;4.60;;
63259;SDS011;49390;51.380;0.098;2023-08-21T05:08:38;11.10;;;4.50;;
63259;SDS011;49390;51.380;0.098;2023-08-21T05:11:08;10.98;;;4.47;;
63259;SDS011;49390;51.380;0.098;2023-08-21T05:13:40;10.13;;;4.40;;
63259;SDS011;49390;51.380;0.098;2023-08-21T05:16:10;9.35;;;4.38;;
63259;SDS011;49390;51.380;0.098;2023-08-21T05:18:40;10.88;;;4.22;;
63259;SDS011;49390;51.380;0.098;2023-08-21T05:21:08;12.45;;;4.43;;
63259;SDS011;49390;51.380;0.098;2023-08-21T05:23:37;9.65;;;4.38;;
63259;SDS011;49390;51.380;0.098;2023-08-21T05:26:07;12.02;;;4.55;;
63259;SDS011;49390;51.380;0.098;2023-08-21T05:28:35;12.05;;;4.40;;
63259;SDS011;49390;51.380;0.098;2023-08-21T05:31:03;9.90;;;4.85;;
63259;SDS011;49390;51.380;0.098;2023-08-21T05:33:44;7.13;;;4.18;;
63259;SDS011;49390;51.380;0.098;2023-08-21T05:36:14;9.00;;;4.60;;
63259;SDS011;49390;51.380;0.098;2023-08-21T05:38:43;6.90;;;4.13;;
63259;SDS011;49390;51.380;0.098;2023-08-21T05:41:11;10.95;;;4.97;;
63259;SDS011;49390;51.380;0.098;2023-08-21T05:43:39;9.48;;;4.78;;
63259;SDS011;49390;51.380;0.098;2023-08-21T05:48:39;13.52;;;4.97;;
63259;SDS011;49390;51.380;0.098;2023-08-21T05:51:07;10.68;;;5.18;;
63259;SDS011;49390;51.380;0.098;2023-08-21T05:53:35;10.38;;;5.07;;
63259;SDS011;49390;51.380;0.098;2023-08-21T05:56:04;10.60;;;4.95;;
63259;SDS011;49390;51.380;0.098;2023-08-21T05:58:32;10.23;;;5.15;;
63259;SDS011;49390;51.380;0.098;2023-08-21T06:01:01;14.27;;;5.35;;
63259;SDS011;49390;51.380;0.098;2023-08-21T06:03:32;11.15;;;5.20;;
63259;SDS011;49390;51.380;0.098;2023-08-21T06:06:08;10.48;;;5.38;;
63259;SDS011;49390;51.380;0.098;2023-08-21T06:08:36;13.68;;;5.13;;
63259;SDS011;49390;51.380;0.098;2023-08-21T06:11:04;10.35;;;4.88;;
63259;SDS011;49390;51.380;0.098;2023-08-21T06:13:33;12.63;;;5.15;;
63259;SDS011;49390;51.380;0.098;2023-08-21T06:16:01;9.07;;;4.30;;
63259;SDS011;49390;51.380;0.098;2023-08-21T06:18:33;11.65;;;4.63;;
63259;SDS011;49390;51.380;0.098;2023-08-21T06:21:02;13.10;;;4.75;;
63259;SDS011;49390;51.380;0.098;2023-08-21T06:23:31;9.25;;;4.28;;
63259;SDS011;49390;51.380;0.098;2023-08-21T06:25:59;10.48;;;4.88;;
63259;SDS011;49390;51.380;0.098;2023-08-21T06:28:27;9.07;;;4.47;;
63259;SDS011;49390;51.380;0.098;2023-08-21T06:30:56;10.80;;;4.90;;
63259;SDS011;49390;51.380;0.098;2023-08-21T06:33:33;8.18;;;4.22;;
63259;SDS011;49390;51.380;0.098;2023-08-21T06:36:01;10.07;;;4.15;;
63259;SDS011;49390;51.380;0.098;2023-08-21T06:38:29;8.55;;;4.10;;
63259;SDS011;49390;51.380;0.098;2023-08-21T06:40:59;9.00;;;4.38;;
63259;SDS011;49390;51.380;0.098;2023-08-21T06:43:30;11.25;;;4.65;;
63259;SDS011;49390;51.380;0.098;2023-08-21T06:45:58;6.88;;;4.03;;
63259;SDS011;49390;51.380;0.098;2023-08-21T06:48:28;7.50;;;3.85;;
63259;SDS011;49390;51.380;0.098;2023-08-21T06:50:56;8.10;;;3.75;;
63259;SDS011;49390;51.380;0.098;2023-08-21T06:53:24;8.02;;;4.20;;
63259;SDS011;49390;51.380;0.098;2023-08-21T06:55:52;9.60;;;5.03;;
63259;SDS011;49390;51.380;0.098;2023-08-21T06:58:20;12.07;;;5.20;;
63259;SDS011;49390;51.380;0.098;2023-08-21T07:00:52;9.60;;;5.40;;
63259;SDS011;49390;51.380;0.098;2023-08-21T07:03:22;10.70;;;4.90;;
63259;SDS011;49390;51.380;0.098;2023-08-21T07:05:56;11.40;;;4.80;;
63259;SDS011;49390;51.380;0.098;2023-08-21T07:08:25;9.02;;;4.53;;
63259;SDS011;49390;51.380;0.098;2023-08-21T07:10:53;7.45;;;4.05;;
63259;SDS011;49390;51.380;0.098;2023-08-21T07:13:22;12.30;;;4.10;;
63259;SDS011;49390;51.380;0.098;2023-08-21T07:15:54;11.35;;;4.00;;
63259;SDS011;49390;51.380;0.098;2023-08-21T07:18:23;10.57;;;4.00;;
63259;SDS011;49390;51.380;0.098;2023-08-21T07:20:54;8.50;;;3.63;;
63259;SDS011;49390;51.380;0.098;2023-08-21T07:23:22;10.10;;;4.05;;
63259;SDS011;49390;51.380;0.098;2023-08-21T07:25:50;10.25;;;4.40;;
63259;SDS011;49390;51.380;0.098;2023-08-21T07:28:18;9.70;;;4.10;;
63259;SDS011;49390;51.380;0.098;2023-08-21T07:30:46;8.93;;;3.95;;
63259;SDS011;49390;51.380;0.098;2023-08-21T07:33:14;7.07;;;3.45;;
63259;SDS011;49390;51.380;0.098;2023-08-21T07:35:42;8.57;;;4.10;;
63259;SDS011;49390;51.380;0.098;2023-08-21T07:38:12;11.95;;;4.28;;
63259;SDS011;49390;51.380;0.098;2023-08-21T07:40:40;10.55;;;4.25;;
63259;SDS011;49390;51.380;0.098;2023-08-21T07:43:08;10.88;;;3.90;;
63259;SDS011;49390;51.380;0.098;2023-08-21T07:45:36;8.82;;;3.53;;
63259;SDS011;49390;51.380;0.098;2023-08-21T07:48:05;8.70;;;3.60;;
63259;SDS011;49390;51.380;0.098;2023-08-21T07:50:41;8.07;;;3.40;;
63259;SDS011;49390;51.380;0.098;2023-08-21T07:53:09;8.93;;;3.45;;
63259;SDS011;49390;51.380;0.098;2023-08-21T07:55:37;9.70;;;3.83;;
63259;SDS011;49390;51.380;0.098;2023-08-21T07:58:05;10.18;;;3.75;;
63259;SDS011;49390;51.380;0.098;2023-08-21T08:00:33;8.02;;;4.18;;
63259;SDS011;49390;51.380;0.098;2023-08-21T08:03:04;9.23;;;3.53;;
63259;SDS011;49390;51.380;0.098;2023-08-21T08:05:36;8.18;;;3.35;;
63259;SDS011;49390;51.380;0.098;2023-08-21T08:08:07;10.20;;;3.65;;
63259;SDS011;49390;51.380;0.098;2023-08-21T08:10:39;9.70;;;3.40;;
63259;SDS011;49390;51.380;0.098;2023-08-21T08:13:08;11.52;;;3.60;;
63259;SDS011;49390;51.380;0.098;2023-08-21T08:15:36;9.15;;;3.25;;
63259;SDS011;49390;51.380;0.098;2023-08-21T08:18:09;8.38;;;3.75;;
63259;SDS011;49390;51.380;0.098;2023-08-21T08:20:41;7.65;;;3.30;;
63259;SDS011;49390;51.380;0.098;2023-08-21T08:23:09;8.57;;;3.60;;
63259;SDS011;49390;51.380;0.098;2023-08-21T08:25:37;9.90;;;3.92;;
63259;SDS011;49390;51.380;0.098;2023-08-21T08:28:06;8.68;;;4.15;;
63259;SDS011;49390;51.380;0.098;2023-08-21T08:30:34;8.60;;;3.83;;
63259;SDS011;49390;51.380;0.098;2023-08-21T08:33:02;9.02;;;3.85;;
63259;SDS011;49390;51.380;0.098;2023-08-21T08:35:30;7.40;;;3.13;;
63259;SDS011;49390;51.380;0.098;2023-08-21T08:37:58;6.70;;;2.85;;
63259;SDS011;49390;51.380;0.098;2023-08-21T08:40:26;5.35;;;2.92;;
63259;SDS011;49390;51.380;0.098;2023-08-21T08:42:54;5.80;;;2.80;;
63259;SDS011;49390;51.380;0.098;2023-08-21T08:45:29;5.40;;;2.72;;
63259;SDS011;49390;51.380;0.098;2023-08-21T08:48:00;7.13;;;2.55;;
63259;SDS011;49390;51.380;0.098;2023-08-21T08:53:00;5.50;;;2.13;;
63259;SDS011;49390;51.380;0.098;2023-08-21T08:55:46;4.80;;;2.08;;
63259;SDS011;49390;51.380;0.098;2023-08-21T08:58:15;5.38;;;2.13;;
63259;SDS011;49390;51.380;0.098;2023-08-21T09:00:43;6.03;;;2.03;;
63259;SDS011;49390;51.380;0.098;2023-08-21T09:03:12;3.25;;;1.88;;
63259;SDS011;49390;51.380;0.098;2023-08-21T09:05:41;5.38;;;2.28;;
63259;SDS011;49390;51.380;0.098;2023-08-21T09:08:10;4.03;;;1.92;;
63259;SDS011;49390;51.380;0.098;2023-08-21T09:10:41;4.57;;;2.00;;
63259;SDS011;49390;51.380;0.098;2023-08-21T09:13:19;3.38;;;2.00;;
63259;SDS011;49390;51.380;0.098;2023-08-21T09:15:48;7.03;;;2.20;;
63259;SDS011;49390;51.380;0.098;2023-08-21T09:18:22;4.40;;;2.00;;
63259;SDS011;49390;51.380;0.098;2023-08-21T09:20:50;6.07;;;2.35;;
63259;SDS011;49390;51.380;0.098;2023-08-21T09:23:21;4.10;;;2.10;;
63259;SDS011;49390;51.380;0.098;2023-08-21T09:25:49;4.73;;;2.20;;
63259;SDS011;49390;51.380;0.098;2023-08-21T09:28:20;4.05;;;2.25;;
63259;SDS011;49390;51.380;0.098;2023-08-21T09:30:50;5.38;;;2.20;;
63259;SDS011;49390;51.380;0.098;2023-08-21T09:33:23;4.25;;;2.10;;
63259;SDS011;49390;51.380;0.098;2023-08-21T09:35:52;4.60;;;2.33;;
63259;SDS011;49390;51.380;0.098;2023-08-21T09:38:20;4.82;;;2.30;;
63259;SDS011;49390;51.380;0.098;2023-08-21T09:40:53;3.80;;;2.30;;
63259;SDS011;49390;51.380;0.098;2023-08-21T09:43:23;4.90;;;2.17;;
63259;SDS011;49390;51.380;0.098;2023-08-21T09:45:52;5.55;;;2.10;;
63259;SDS011;49390;51.380;0.098;2023-08-21T09:48:24;4.43;;;2.15;;
63259;SDS011;49390;51.380;0.098;2023-08-21T09:50:56;5.60;;;2.13;;
63259;SDS011;49390;51.380;0.098;2023-08-21T09:53:24;3.88;;;2.22;;
63259;SDS011;49390;51.380;0.098;2023-08-21T09:55:59;3.20;;;2.00;;
63259;SDS011;49390;51.380;0.098;2023-08-21T09:58:31;3.50;;;2.00;;
63259;SDS011;49390;51.380;0.098;2023-08-21T10:00:59;4.40;;;2.58;;
63259;SDS011;49390;51.380;0.098;2023-08-21T10:03:34;4.43;;;2.20;;
63259;SDS011;49390;51.380;0.098;2023-08-21T10:06:05;4.20;;;2.00;;
63259;SDS011;49390;51.380;0.098;2023-08-21T10:08:38;5.00;;;2.30;;
63259;SDS011;49390;51.380;0.098;2023-08-21T10:11:09;5.38;;;2.30;;
63259;SDS011;49390;51.380;0.098;2023-08-21T10:15:00;4.38;;;2.20;;
63259;SDS011;49390;51.380;0.098;2023-08-21T10:17:30;3.72;;;2.33;;
63259;SDS011;49390;51.380;0.098;2023-08-21T10:20:02;3.97;;;2.20;;
63259;SDS011;49390;51.380;0.098;2023-08-21T10:22:45;4.78;;;2.13;;
63259;SDS011;49390;51.380;0.098;2023-08-21T10:25:16;4.50;;;2.17;;
63259;SDS011;49390;51.380;0.098;2023-08-21T10:27:59;4.18;;;2.22;;
63259;SDS011;49390;51.380;0.098;2023-08-21T10:32:57;4.45;;;2.45;;
63259;SDS011;49390;51.380;0.098;2023-08-21T10:35:30;3.58;;;2.20;;
63259;SDS011;49390;51.380;0.098;2023-08-21T10:38:09;3.15;;;1.98;;
63259;SDS011;49390;51.380;0.098;2023-08-21T10:40:40;4.80;;;2.28;;
63259;SDS011;49390;51.380;0.098;2023-08-21T10:46:12;4.38;;;2.30;;
63259;SDS011;49390;51.380;0.098;2023-08-21T10:48:43;4.80;;;2.40;;
63259;SDS011;49390;51.380;0.098;2023-08-21T10:51:11;3.95;;;2.10;;
63259;SDS011;49390;51.380;0.098;2023-08-21T10:53:41;4.43;;;2.30;;
63259;SDS011;49390;51.380;0.098;2023-08-21T10:56:10;5.85;;;2.40;;
63259;SDS011;49390;51.380;0.098;2023-08-21T10:58:41;5.63;;;2.38;;
63259;SDS011;49390;51.380;0.098;2023-08-21T11:01:10;3.60;;;2.30;;
63259;SDS011;49390;51.380;0.098;2023-08-21T11:03:43;4.45;;;2.20;;
63259;SDS011;49390;51.380;0.098;2023-08-21T11:06:13;4.40;;;2.10;;
63259;SDS011;49390;51.380;0.098;2023-08-21T11:08:46;4.97;;;2.13;;
63259;SDS011;49390;51.380;0.098;2023-08-21T11:11:14;5.38;;;2.30;;
63259;SDS011;49390;51.380;0.098;2023-08-21T11:13:51;4.80;;;2.20;;
63259;SDS011;49390;51.380;0.098;2023-08-21T11:16:20;5.80;;;2.13;;
63259;SDS011;49390;51.380;0.098;2023-08-21T11:18:48;4.63;;;2.05;;
63259;SDS011;49390;51.380;0.098;2023-08-21T11:21:16;4.47;;;2.22;;
63259;SDS011;49390;51.380;0.098;2023-08-21T11:23:45;5.53;;;2.30;;
63259;SDS011;49390;51.380;0.098;2023-08-21T11:26:13;6.32;;;2.28;;
63259;SDS011;49390;51.380;0.098;2023-08-21T11:28:48;4.00;;;2.17;;
63259;SDS011;49390;51.380;0.098;2023-08-21T11:31:16;5.53;;;2.40;;
63259;SDS011;49390;51.380;0.098;2023-08-21T11:33:49;4.65;;;2.30;;
63259;SDS011;49390;51.380;0.098;2023-08-21T11:36:18;6.68;;;2.40;;
63259;SDS011;49390;51.380;0.098;2023-08-21T11:39:03;4.28;;;2.00;;
63259;SDS011;49390;51.380;0.098;2023-08-21T11:41:32;3.72;;;2.03;;
63259;SDS011;49390;51.380;0.098;2023-08-21T11:44:19;3.63;;;1.90;;
63259;SDS011;49390;51.380;0.098;2023-08-21T11:46:50;5.30;;;2.03;;
63259;SDS011;49390;51.380;0.098;2023-08-21T11:49:19;4.03;;;2.17;;
63259;SDS011;49390;51.380;0.098;2023-08-21T11:51:49;3.55;;;2.00;;
63259;SDS011;49390;51.380;0.098;2023-08-21T11:54:19;5.60;;;2.20;;
63259;SDS011;49390;51.380;0.098;2023-08-21T11:56:47;6.90;;;2.63;;
63259;SDS011;49390;51.380;0.098;2023-08-21T11:59:24;5.90;;;2.25;;
63259;SDS011;49390;51.380;0.098;2023-08-21T12:01:53;4.15;;;2.10;;
63259;SDS011;49390;51.380;0.098;2023-08-21T12:04:22;3.15;;;2.20;;
63259;SDS011;49390;51.380;0.098;2023-08-21T12:06:50;4.15;;;2.33;;
63259;SDS011;49390;51.380;0.098;2023-08-21T12:09:18;3.92;;;2.13;;
63259;SDS011;49390;51.380;0.098;2023-08-21T12:11:46;5.95;;;2.25;;
63259;SDS011;49390;51.380;0.098;2023-08-21T12:14:14;5.40;;;2.10;;
63259;SDS011;49390;51.380;0.098;2023-08-21T12:16:44;5.20;;;2.30;;
63259;SDS011;49390;51.380;0.098;2023-08-21T12:19:12;5.28;;;2.42;;
63259;SDS011;49390;51.380;0.098;2023-08-21T12:21:41;5.13;;;2.47;;
63259;SDS011;49390;51.380;0.098;2023-08-21T12:24:10;5.45;;;2.53;;
63259;SDS011;49390;51.380;0.098;2023-08-21T12:26:38;6.03;;;2.50;;
63259;SDS011;49390;51.380;0.098;2023-08-21T12:31:36;5.55;;;2.90;;
63259;SDS011;49390;51.380;0.098;2023-08-21T12:34:07;7.82;;;3.28;;
63259;SDS011;49390;51.380;0.098;2023-08-21T12:36:35;6.38;;;3.28;;
63259;SDS011;49390;51.380;0.098;2023-08-21T12:39:07;5.68;;;2.70;;
63259;SDS011;49390;51.380;0.098;2023-08-21T12:41:36;6.35;;;3.53;;
63259;SDS011;49390;51.380;0.098;2023-08-21T12:44:05;6.35;;;3.60;;
63259;SDS011;49390;51.380;0.098;2023-08-21T12:49:04;7.22;;;4.10;;
63259;SDS011;49390;51.380;0.098;2023-08-21T12:51:35;7.68;;;3.90;;
63259;SDS011;49390;51.380;0.098;2023-08-21T12:54:04;7.63;;;3.92;;
63259;SDS011;49390;51.380;0.098;2023-08-21T12:56:32;7.30;;;3.72;;
63259;SDS011;49390;51.380;0.098;2023-08-21T12:59:02;7.45;;;3.83;;
63259;SDS011;49390;51.380;0.098;2023-08-21T13:01:31;6.32;;;3.67;;
63259;SDS011;49390;51.380;0.098;2023-08-21T13:04:01;9.93;;;4.03;;
63259;SDS011;49390;51.380;0.098;2023-08-21T13:06:30;7.07;;;4.10;;
63259;SDS011;49390;51.380;0.098;2023-08-21T13:08:58;6.28;;;3.80;;
63259;SDS011;49390;51.380;0.098;2023-08-21T13:11:26;8.45;;;3.90;;
63259;SDS011;49390;51.380;0.098;2023-08-21T13:13:56;8.45;;;4.07;;
63259;SDS011;49390;51.380;0.098;2023-08-21T13:16:26;7.20;;;4.22;;
63259;SDS011;49390;51.380;0.098;2023-08-21T13:18:54;8.38;;;4.20;;
63259;SDS011;49390;51.380;0.098;2023-08-21T13:21:22;6.82;;;3.42;;
63259;SDS011;49390;51.380;0.098;2023-08-21T13:23:50;7.57;;;3.80;;
63259;SDS011;49390;51.380;0.098;2023-08-21T13:26:18;8.43;;;3.63;;
63259;SDS011;49390;51.380;0.098;2023-08-21T13:28:46;6.80;;;3.55;;
63259;SDS011;49390;51.380;0.098;2023-08-21T13:31:14;7.05;;;3.63;;
63259;SDS011;49390;51.380;0.098;2023-08-21T13:33:46;7.05;;;3.38;;
63259;SDS011;49390;51.380;0.098;2023-08-21T13:36:18;6.50;;;3.40;;
63259;SDS011;49390;51.380;0.098;2023-08-21T13:38:47;6.03;;;3.50;;
63259;SDS011;49390;51.380;0.098;2023-08-21T13:41:15;6.15;;;3.13;;
63259;SDS011;49390;51.380;0.098;2023-08-21T13:43:43;4.80;;;2.90;;
63259;SDS011;49390;51.380;0.098;2023-08-21T13:46:12;9.57;;;3.30;;
63259;SDS011;49390;51.380;0.098;2023-08-21T13:48:41;4.70;;;2.70;;
63259;SDS011;49390;51.380;0.098;2023-08-21T13:51:13;7.00;;;3.10;;
63259;SDS011;49390;51.380;0.098;2023-08-21T13:53:44;4.30;;;2.65;;
63259;SDS011;49390;51.380;0.098;2023-08-21T13:56:14;6.07;;;2.72;;
63259;SDS011;49390;51.380;0.098;2023-08-21T13:58:42;4.88;;;2.67;;
63259;SDS011;49390;51.380;0.098;2023-08-21T14:01:10;4.72;;;2.50;;
63259;SDS011;49390;51.380;0.098;2023-08-21T14:03:39;4.72;;;2.50;;
63259;SDS011;49390;51.380;0.098;2023-08-21T14:06:08;3.55;;;2.33;;
63259;SDS011;49390;51.380;0.098;2023-08-21T14:08:39;6.35;;;2.50;;
63259;SDS011;49390;51.380;0.098;2023-08-21T14:11:10;5.38;;;2.67;;
63259;SDS011;49390;51.380;0.098;2023-08-21T14:13:39;3.38;;;2.13;;
63259;SDS011;49390;51.380;0.098;2023-08-21T14:16:07;3.75;;;2.45;;
63259;SDS011;49390;51.380;0.098;2023-08-21T14:18:35;4.45;;;2.50;;
63259;SDS011;49390;51.380;0.098;2023-08-21T14:21:03;4.78;;;2.60;;
63259;SDS011;49390;51.380;0.098;2023-08-21T14:23:31;4.82;;;2.50;;
63259;SDS011;49390;51.380;0.098;2023-08-21T14:26:00;3.47;;;2.20;;
63259;SDS011;49390;51.380;0.098;2023-08-21T14:28:29;5.18;;;2.60;;
63259;SDS011;49390;51.380;0.098;2023-08-21T14:30:58;4.88;;;2.45;;
63259;SDS011;49390;51.380;0.098;2023-08-21T14:33:27;3.53;;;2.38;;
63259;SDS011;49390;51.380;0.098;2023-08-21T14:35:55;3.97;;;2.15;;
63259;SDS011;49390;51.380;0.098;2023-08-21T14:38:24;4.03;;;2.40;;
63259;SDS011;49390;51.380;0.098;2023-08-21T14:40:52;4.00;;;2.30;;
63259;SDS011;49390;51.380;0.098;2023-08-21T14:43:21;6.18;;;2.47;;
63259;SDS011;49390;51.380;0.098;2023-08-21T14:45:49;4.97;;;2.40;;
63259;SDS011;49390;51.380;0.098;2023-08-21T14:48:19;5.03;;;2.58;;
63259;SDS011;49390;51.380;0.098;2023-08-21T14:50:47;5.05;;;2.90;;
63259;SDS011;49390;51.380;0.098;2023-08-21T14:53:16;5.72;;;2.83;;
63259;SDS011;49390;51.380;0.098;2023-08-21T14:55:44;4.68;;;2.28;;
63259;SDS011;49390;51.380;0.098;2023-08-21T14:58:12;4.72;;;2.63;;
63259;SDS011;49390;51.380;0.098;2023-08-21T15:00:40;3.78;;;2.20;;
63259;SDS011;49390;51.380;0.098;2023-08-21T15:03:09;3.75;;;2.15;;
63259;SDS011;49390;51.380;0.098;2023-08-21T15:05:38;3.97;;;2.33;;
63259;SDS011;49390;51.380;0.098;2023-08-21T15:08:06;4.32;;;2.45;;
63259;SDS011;49390;51.380;0.098;2023-08-21T15:10:34;4.43;;;2.38;;
63259;SDS011;49390;51.380;0.098;2023-08-21T15:13:02;3.55;;;2.17;;
63259;SDS011;49390;51.380;0.098;2023-08-21T15:15:33;5.93;;;2.47;;
63259;SDS011;49390;51.380;0.098;2023-08-21T15:18:01;4.50;;;2.05;;
63259;SDS011;49390;51.380;0.098;2023-08-21T15:20:29;3.38;;;2.00;;
63259;SDS011;49390;51.380;0.098;2023-08-21T15:22:57;5.38;;;2.50;;
63259;SDS011;49390;51.380;0.098;2023-08-21T15:25:25;3.92;;;2.20;;
63259;SDS011;49390;51.380;0.098;2023-08-21T15:27:53;4.20;;;2.40;;